This is the latest recevied weather packets stored in our database for station/object SQ2WB-13. If no packets are shown the sender has not sent any weather packets the latest 10 day(s).
| Time | Temp. | Humidity | Pressure | Rain* | Wind** | Luminosity | Snow |
|---|---|---|---|---|---|---|---|
| 1787409901 | 18.89° C | 81% | 1002.3 hPa | 0 mm | - | - | - |
| 1787409001 | 18.89° C | 77% | 1002.3 hPa | 0 mm | - | - | - |
| 1787408103 | 16.67° C | 81% | 1002.3 hPa | 0 mm | - | - | - |
| 1787407201 | 18.89° C | 80% | 1002 hPa | 0 mm | - | - | - |
| 1787406301 | 20° C | 77% | 1002 hPa | 0 mm | - | - | - |
| 1787405402 | 20° C | 80% | 1002 hPa | 0 mm | - | - | - |
| 1787404501 | 20° C | 76% | 1001.3 hPa | 0 mm | - | - | - |
| 1787403602 | 18.89° C | 78% | 1001.3 hPa | 0 mm | - | - | - |
| 1787402702 | 20.56° C | 74% | 1001.3 hPa | 0 mm | - | - | - |
| 1787401802 | 20° C | 80% | 1001 hPa | 0 mm | - | - | - |
| 1787400902 | 17.78° C | 86% | 1001 hPa | 1.27 mm | - | - | - |
| 1787400002 | 17.78° C | 88% | 1001 hPa | 0 mm | - | - | - |
| 1787399101 | 16.67° C | 94% | 1001 hPa | 0 mm | - | - | - |
| 1787398201 | 17.78° C | 86% | 1001 hPa | 0 mm | - | - | - |
| 1787397302 | 18.89° C | 83% | 1000.6 hPa | 0 mm | - | - | - |
| 1787396401 | 17.78° C | 88% | 1000.3 hPa | 0 mm | - | - | - |
| 1787395501 | 17.78° C | 88% | 1000.3 hPa | 0 mm | - | - | - |
| 1787394601 | 16.67° C | 91% | 1000.3 hPa | 0 mm | - | - | - |
| 1787393700 | 16.67° C | 95% | 1000.3 hPa | 0 mm | - | - | - |
| 1787392801 | 15.56° C | 94% | 1000.3 hPa | 0 mm | - | - | - |
| 1787391901 | 15.56° C | 94% | 1000.3 hPa | 0 mm | - | - | - |
| 1787391001 | 16.67° C | 92% | 1000 hPa | 0 mm | - | - | - |
| 1787390101 | 16.67° C | 91% | 1000 hPa | 0 mm | - | - | - |
| 1787389201 | 16.67° C | 92% | 999.6 hPa | 0 mm | - | - | - |
| 1787388302 | 16.67° C | 94% | 999.3 hPa | 0 mm | - | - | - |
* Rain latest hour (hover to see other rain measurements)
** Current wind speed in m/s (hover to see current wind gust speed)